Terminal Aerodrome Forecast
Issued by NWS

Home | Current Version | Previous Version | Graphics & Text | Print | Product List | Glossary On
Versions: 1 2 3 4 5 6 7 8 9 10 11 12 13
000
FTUS43 KMPX 311135
TAFAXN
TAF
KAXN 311135Z 3112/0112 12009KT P6SM SCT040 BKN250
     FM311900 13011KT P6SM OVC100
     FM010400 12007KT P6SM SCT100=

USA.gov is the U.S. government's official web portal to all federal, state and local government web resources and services.